sensor_id;sensor_type;location;lat;lon;timestamp;temperature;humidity
21861;DHT22;11095;48.066;8.540;2023-03-01T00:00:19;-4.00;99.90
21861;DHT22;11095;48.066;8.540;2023-03-01T00:02:48;-4.00;99.90
21861;DHT22;11095;48.066;8.540;2023-03-01T00:05:14;-4.00;99.90
21861;DHT22;11095;48.066;8.540;2023-03-01T00:07:52;-4.00;99.90
21861;DHT22;11095;48.066;8.540;2023-03-01T00:10:18;-4.00;99.90
21861;DHT22;11095;48.066;8.540;2023-03-01T00:12:57;-4.00;99.90
21861;DHT22;11095;48.066;8.540;2023-03-01T00:15:23;-4.10;99.90
21861;DHT22;11095;48.066;8.540;2023-03-01T00:17:49;-4.00;99.90
21861;DHT22;11095;48.066;8.540;2023-03-01T00:20:38;-4.00;99.90
21861;DHT22;11095;48.066;8.540;2023-03-01T00:23:07;-4.00;99.90
21861;DHT22;11095;48.066;8.540;2023-03-01T00:25:42;-4.00;99.90
21861;DHT22;11095;48.066;8.540;2023-03-01T00:28:10;-4.00;99.90
21861;DHT22;11095;48.066;8.540;2023-03-01T00:30:36;-4.10;99.90
21861;DHT22;11095;48.066;8.540;2023-03-01T00:36:35;-4.30;99.90
21861;DHT22;11095;48.066;8.540;2023-03-01T00:39:10;-4.40;99.90
21861;DHT22;11095;48.066;8.540;2023-03-01T00:41:37;-4.50;99.90
21861;DHT22;11095;48.066;8.540;2023-03-01T00:44:13;-4.60;99.90
21861;DHT22;11095;48.066;8.540;2023-03-01T00:50:29;-4.70;99.90
21861;DHT22;11095;48.066;8.540;2023-03-01T00:53:00;-4.80;99.90
21861;DHT22;11095;48.066;8.540;2023-03-01T00:59:19;-4.70;99.90
21861;DHT22;11095;48.066;8.540;2023-03-01T01:21:41;-4.40;99.90
21861;DHT22;11095;48.066;8.540;2023-03-01T01:24:53;-4.40;99.90
21861;DHT22;11095;48.066;8.540;2023-03-01T01:34:52;-4.10;99.90
21861;DHT22;11095;48.066;8.540;2023-03-01T01:38:32;-4.00;99.90
21861;DHT22;11095;48.066;8.540;2023-03-01T01:44:20;-3.90;99.90
21861;DHT22;11095;48.066;8.540;2023-03-01T01:47:19;-3.80;99.90
21861;DHT22;11095;48.066;8.540;2023-03-01T01:49:46;-3.80;99.90
21861;DHT22;11095;48.066;8.540;2023-03-01T01:52:24;-3.80;99.90
21861;DHT22;11095;48.066;8.540;2023-03-01T01:54:56;-3.80;99.90
21861;DHT22;11095;48.066;8.540;2023-03-01T01:57:35;-3.80;99.90
21861;DHT22;11095;48.066;8.540;2023-03-01T02:00:07;-3.80;99.90
21861;DHT22;11095;48.066;8.540;2023-03-01T02:02:33;-3.70;99.90
21861;DHT22;11095;48.066;8.540;2023-03-01T02:05:09;-3.70;99.90
21861;DHT22;11095;48.066;8.540;2023-03-01T02:07:39;-3.60;99.90
21861;DHT22;11095;48.066;8.540;2023-03-01T02:10:05;-3.60;99.90
21861;DHT22;11095;48.066;8.540;2023-03-01T02:12:31;-3.60;99.90
21861;DHT22;11095;48.066;8.540;2023-03-01T02:14:57;-3.50;99.90
21861;DHT22;11095;48.066;8.540;2023-03-01T02:17:23;-3.40;99.90
21861;DHT22;11095;48.066;8.540;2023-03-01T02:22:37;-3.30;99.90
21861;DHT22;11095;48.066;8.540;2023-03-01T02:30:41;-3.30;99.90
21861;DHT22;11095;48.066;8.540;2023-03-01T02:33:28;-3.20;99.90
21861;DHT22;11095;48.066;8.540;2023-03-01T02:36:00;-3.20;99.90
21861;DHT22;11095;48.066;8.540;2023-03-01T02:38:27;-3.20;99.90
21861;DHT22;11095;48.066;8.540;2023-03-01T02:40:54;-3.20;99.90
21861;DHT22;11095;48.066;8.540;2023-03-01T02:43:25;-3.20;99.90
21861;DHT22;11095;48.066;8.540;2023-03-01T02:45:54;-3.20;99.90
21861;DHT22;11095;48.066;8.540;2023-03-01T02:48:22;-3.20;99.90
21861;DHT22;11095;48.066;8.540;2023-03-01T02:51:11;-3.20;99.90
21861;DHT22;11095;48.066;8.540;2023-03-01T02:56:25;-3.20;99.90
21861;DHT22;11095;48.066;8.540;2023-03-01T02:58:51;-3.30;99.90
21861;DHT22;11095;48.066;8.540;2023-03-01T03:01:19;-3.30;99.90
21861;DHT22;11095;48.066;8.540;2023-03-01T03:03:44;-3.30;99.90
21861;DHT22;11095;48.066;8.540;2023-03-01T03:06:10;-3.30;99.90
21861;DHT22;11095;48.066;8.540;2023-03-01T03:08:36;-3.30;99.90
21861;DHT22;11095;48.066;8.540;2023-03-01T03:11:02;-3.30;99.90
21861;DHT22;11095;48.066;8.540;2023-03-01T03:13:27;-3.30;99.90
21861;DHT22;11095;48.066;8.540;2023-03-01T03:15:54;-3.30;99.90
21861;DHT22;11095;48.066;8.540;2023-03-01T03:18:21;-3.30;99.90
21861;DHT22;11095;48.066;8.540;2023-03-01T03:20:48;-3.30;99.90
21861;DHT22;11095;48.066;8.540;2023-03-01T03:23:19;-3.30;99.90
21861;DHT22;11095;48.066;8.540;2023-03-01T03:25:47;-3.30;99.90
21861;DHT22;11095;48.066;8.540;2023-03-01T03:28:13;-3.30;99.90
21861;DHT22;11095;48.066;8.540;2023-03-01T03:30:40;-3.30;99.90
21861;DHT22;11095;48.066;8.540;2023-03-01T03:33:07;-3.30;99.90
21861;DHT22;11095;48.066;8.540;2023-03-01T03:35:43;-3.30;99.90
21861;DHT22;11095;48.066;8.540;2023-03-01T03:38:10;-3.30;99.90
21861;DHT22;11095;48.066;8.540;2023-03-01T03:40:43;-3.30;99.90
21861;DHT22;11095;48.066;8.540;2023-03-01T03:43:15;-3.40;99.90
21861;DHT22;11095;48.066;8.540;2023-03-01T03:45:41;-3.40;99.90
21861;DHT22;11095;48.066;8.540;2023-03-01T03:48:09;-3.30;99.90
21861;DHT22;11095;48.066;8.540;2023-03-01T03:50:36;-3.30;99.90
21861;DHT22;11095;48.066;8.540;2023-03-01T03:53:05;-3.30;99.90
21861;DHT22;11095;48.066;8.540;2023-03-01T03:55:31;-3.30;99.90
21861;DHT22;11095;48.066;8.540;2023-03-01T03:58:00;-3.30;99.90
21861;DHT22;11095;48.066;8.540;2023-03-01T04:00:33;-3.30;99.90
21861;DHT22;11095;48.066;8.540;2023-03-01T04:02:59;-3.30;99.90
21861;DHT22;11095;48.066;8.540;2023-03-01T04:05:25;-3.30;99.90
21861;DHT22;11095;48.066;8.540;2023-03-01T04:07:50;-3.30;99.90
21861;DHT22;11095;48.066;8.540;2023-03-01T04:10:27;-3.30;99.90
21861;DHT22;11095;48.066;8.540;2023-03-01T04:12:53;-3.30;99.90
21861;DHT22;11095;48.066;8.540;2023-03-01T04:15:22;-3.20;99.90
21861;DHT22;11095;48.066;8.540;2023-03-01T04:17:50;-3.20;99.90
21861;DHT22;11095;48.066;8.540;2023-03-01T04:20:19;-3.20;99.90
21861;DHT22;11095;48.066;8.540;2023-03-01T04:22:58;-3.20;99.90
21861;DHT22;11095;48.066;8.540;2023-03-01T04:25:24;-3.20;99.90
21861;DHT22;11095;48.066;8.540;2023-03-01T04:27:50;-3.20;99.90
21861;DHT22;11095;48.066;8.540;2023-03-01T04:30:16;-3.20;99.90
21861;DHT22;11095;48.066;8.540;2023-03-01T04:32:41;-3.20;99.90
21861;DHT22;11095;48.066;8.540;2023-03-01T04:35:07;-3.20;99.90
21861;DHT22;11095;48.066;8.540;2023-03-01T04:37:33;-3.20;99.90
21861;DHT22;11095;48.066;8.540;2023-03-01T04:40:01;-3.20;99.90
21861;DHT22;11095;48.066;8.540;2023-03-01T04:42:26;-3.10;99.90
21861;DHT22;11095;48.066;8.540;2023-03-01T04:44:52;-3.20;99.90
21861;DHT22;11095;48.066;8.540;2023-03-01T04:47:18;-3.20;99.90
21861;DHT22;11095;48.066;8.540;2023-03-01T04:49:43;-3.20;99.90
21861;DHT22;11095;48.066;8.540;2023-03-01T04:52:09;-3.30;99.90
21861;DHT22;11095;48.066;8.540;2023-03-01T04:54:35;-3.20;99.90
21861;DHT22;11095;48.066;8.540;2023-03-01T04:57:02;-3.30;99.90
21861;DHT22;11095;48.066;8.540;2023-03-01T04:59:28;-3.30;99.90
21861;DHT22;11095;48.066;8.540;2023-03-01T05:01:55;-3.30;99.90
21861;DHT22;11095;48.066;8.540;2023-03-01T05:04:22;-3.20;99.90
21861;DHT22;11095;48.066;8.540;2023-03-01T05:06:48;-3.30;99.90
21861;DHT22;11095;48.066;8.540;2023-03-01T05:09:13;-3.20;99.90
21861;DHT22;11095;48.066;8.540;2023-03-01T05:11:39;-3.20;99.90
21861;DHT22;11095;48.066;8.540;2023-03-01T05:14:06;-3.20;99.90
21861;DHT22;11095;48.066;8.540;2023-03-01T05:16:32;-3.20;99.90
21861;DHT22;11095;48.066;8.540;2023-03-01T05:18:59;-3.20;99.90
21861;DHT22;11095;48.066;8.540;2023-03-01T05:21:25;-3.20;99.90
21861;DHT22;11095;48.066;8.540;2023-03-01T05:23:51;-3.20;99.90
21861;DHT22;11095;48.066;8.540;2023-03-01T05:26:18;-3.20;99.90
21861;DHT22;11095;48.066;8.540;2023-03-01T05:28:44;-3.20;99.90
21861;DHT22;11095;48.066;8.540;2023-03-01T05:31:10;-3.20;99.90
21861;DHT22;11095;48.066;8.540;2023-03-01T05:33:40;-3.20;99.90
21861;DHT22;11095;48.066;8.540;2023-03-01T05:36:09;-3.20;99.90
21861;DHT22;11095;48.066;8.540;2023-03-01T05:38:35;-3.20;99.90
21861;DHT22;11095;48.066;8.540;2023-03-01T05:41:01;-3.20;99.90
21861;DHT22;11095;48.066;8.540;2023-03-01T05:43:30;-3.20;99.90
21861;DHT22;11095;48.066;8.540;2023-03-01T05:45:59;-3.20;99.90
21861;DHT22;11095;48.066;8.540;2023-03-01T05:48:25;-3.20;99.90
21861;DHT22;11095;48.066;8.540;2023-03-01T05:50:51;-3.20;99.90
21861;DHT22;11095;48.066;8.540;2023-03-01T05:53:18;-3.10;99.90
21861;DHT22;11095;48.066;8.540;2023-03-01T05:55:46;-3.10;99.90
21861;DHT22;11095;48.066;8.540;2023-03-01T05:58:17;-3.20;99.90
21861;DHT22;11095;48.066;8.540;2023-03-01T06:00:44;-3.20;99.90
21861;DHT22;11095;48.066;8.540;2023-03-01T06:03:12;-3.10;99.90
21861;DHT22;11095;48.066;8.540;2023-03-01T06:05:38;-3.10;99.90
21861;DHT22;11095;48.066;8.540;2023-03-01T06:08:04;-3.10;99.90
21861;DHT22;11095;48.066;8.540;2023-03-01T06:10:30;-3.10;99.90
21861;DHT22;11095;48.066;8.540;2023-03-01T06:12:56;-3.10;99.90
21861;DHT22;11095;48.066;8.540;2023-03-01T06:15:23;-3.10;99.90
21861;DHT22;11095;48.066;8.540;2023-03-01T06:17:48;-3.10;99.90
21861;DHT22;11095;48.066;8.540;2023-03-01T06:20:16;-3.10;99.90
21861;DHT22;11095;48.066;8.540;2023-03-01T06:22:43;-3.10;99.90
21861;DHT22;11095;48.066;8.540;2023-03-01T06:25:09;-3.10;99.90
21861;DHT22;11095;48.066;8.540;2023-03-01T06:27:35;-3.10;99.90
21861;DHT22;11095;48.066;8.540;2023-03-01T06:30:01;-3.10;99.90
21861;DHT22;11095;48.066;8.540;2023-03-01T06:32:27;-3.20;99.90
21861;DHT22;11095;48.066;8.540;2023-03-01T06:34:53;-3.20;99.90
21861;DHT22;11095;48.066;8.540;2023-03-01T06:37:18;-3.10;99.90
21861;DHT22;11095;48.066;8.540;2023-03-01T06:39:44;-3.20;99.90
21861;DHT22;11095;48.066;8.540;2023-03-01T06:42:10;-3.10;99.90
21861;DHT22;11095;48.066;8.540;2023-03-01T06:44:37;-3.20;99.90
21861;DHT22;11095;48.066;8.540;2023-03-01T06:47:03;-3.20;99.90
21861;DHT22;11095;48.066;8.540;2023-03-01T06:49:29;-3.20;99.90
21861;DHT22;11095;48.066;8.540;2023-03-01T06:51:55;-3.20;99.90
21861;DHT22;11095;48.066;8.540;2023-03-01T06:54:21;-3.20;99.90
21861;DHT22;11095;48.066;8.540;2023-03-01T06:56:48;-3.20;99.90
21861;DHT22;11095;48.066;8.540;2023-03-01T06:59:14;-3.20;99.90
21861;DHT22;11095;48.066;8.540;2023-03-01T07:01:39;-3.20;99.90
21861;DHT22;11095;48.066;8.540;2023-03-01T07:04:05;-3.20;99.90
21861;DHT22;11095;48.066;8.540;2023-03-01T07:06:30;-3.10;99.90
21861;DHT22;11095;48.066;8.540;2023-03-01T07:08:56;-3.20;99.90
21861;DHT22;11095;48.066;8.540;2023-03-01T07:11:22;-3.20;99.90
21861;DHT22;11095;48.066;8.540;2023-03-01T07:13:48;-3.20;99.90
21861;DHT22;11095;48.066;8.540;2023-03-01T07:16:14;-3.20;99.90
21861;DHT22;11095;48.066;8.540;2023-03-01T07:18:40;-3.20;99.90
21861;DHT22;11095;48.066;8.540;2023-03-01T07:21:12;-3.20;99.90
21861;DHT22;11095;48.066;8.540;2023-03-01T07:23:38;-3.20;99.90
21861;DHT22;11095;48.066;8.540;2023-03-01T07:26:03;-3.20;99.90
21861;DHT22;11095;48.066;8.540;2023-03-01T07:28:29;-3.20;99.90
21861;DHT22;11095;48.066;8.540;2023-03-01T07:31:00;-3.20;99.90
21861;DHT22;11095;48.066;8.540;2023-03-01T07:33:26;-3.20;99.90
21861;DHT22;11095;48.066;8.540;2023-03-01T07:36:00;-3.20;99.90
21861;DHT22;11095;48.066;8.540;2023-03-01T07:38:27;-3.10;99.90
21861;DHT22;11095;48.066;8.540;2023-03-01T07:41:00;-3.20;99.90
21861;DHT22;11095;48.066;8.540;2023-03-01T07:43:28;-3.10;99.90
21861;DHT22;11095;48.066;8.540;2023-03-01T07:45:54;-3.10;99.90
21861;DHT22;11095;48.066;8.540;2023-03-01T07:48:19;-3.10;99.90
21861;DHT22;11095;48.066;8.540;2023-03-01T07:50:45;-3.00;99.90
21861;DHT22;11095;48.066;8.540;2023-03-01T07:53:11;-3.00;99.90
21861;DHT22;11095;48.066;8.540;2023-03-01T07:55:36;-2.90;99.90
21861;DHT22;11095;48.066;8.540;2023-03-01T07:58:02;-2.90;99.90
21861;DHT22;11095;48.066;8.540;2023-03-01T08:00:28;-2.90;99.90
21861;DHT22;11095;48.066;8.540;2023-03-01T08:02:54;-2.90;99.90
21861;DHT22;11095;48.066;8.540;2023-03-01T08:05:19;-2.90;99.90
21861;DHT22;11095;48.066;8.540;2023-03-01T08:07:47;-2.90;99.90
21861;DHT22;11095;48.066;8.540;2023-03-01T08:10:13;-2.80;99.90
21861;DHT22;11095;48.066;8.540;2023-03-01T08:12:38;-2.80;99.90
21861;DHT22;11095;48.066;8.540;2023-03-01T08:15:04;-2.70;99.90
21861;DHT22;11095;48.066;8.540;2023-03-01T08:17:30;-2.80;99.90
21861;DHT22;11095;48.066;8.540;2023-03-01T08:19:56;-2.70;99.90
21861;DHT22;11095;48.066;8.540;2023-03-01T08:22:21;-2.70;99.90
21861;DHT22;11095;48.066;8.540;2023-03-01T08:24:47;-2.60;99.90
21861;DHT22;11095;48.066;8.540;2023-03-01T08:27:15;-2.60;99.90
21861;DHT22;11095;48.066;8.540;2023-03-01T08:29:40;-2.60;99.90
21861;DHT22;11095;48.066;8.540;2023-03-01T08:32:06;-2.60;99.90
21861;DHT22;11095;48.066;8.540;2023-03-01T08:34:32;-2.60;99.90
21861;DHT22;11095;48.066;8.540;2023-03-01T08:36:57;-2.60;99.90
21861;DHT22;11095;48.066;8.540;2023-03-01T08:39:23;-2.60;99.90
21861;DHT22;11095;48.066;8.540;2023-03-01T08:41:49;-2.50;99.90
21861;DHT22;11095;48.066;8.540;2023-03-01T08:44:15;-2.50;99.90
21861;DHT22;11095;48.066;8.540;2023-03-01T08:46:45;-2.50;99.90
21861;DHT22;11095;48.066;8.540;2023-03-01T08:49:16;-2.60;99.90
21861;DHT22;11095;48.066;8.540;2023-03-01T08:51:43;-2.50;99.90
21861;DHT22;11095;48.066;8.540;2023-03-01T08:54:15;-2.40;99.90
21861;DHT22;11095;48.066;8.540;2023-03-01T08:56:41;-2.30;99.90
21861;DHT22;11095;48.066;8.540;2023-03-01T08:59:07;-2.30;99.90
21861;DHT22;11095;48.066;8.540;2023-03-01T09:01:33;-2.30;99.90
21861;DHT22;11095;48.066;8.540;2023-03-01T09:03:59;-2.30;99.90
21861;DHT22;11095;48.066;8.540;2023-03-01T09:06:24;-2.30;99.90
21861;DHT22;11095;48.066;8.540;2023-03-01T09:08:50;-2.20;99.90
21861;DHT22;11095;48.066;8.540;2023-03-01T09:11:20;-2.10;99.90
21861;DHT22;11095;48.066;8.540;2023-03-01T09:13:47;-2.20;99.90
21861;DHT22;11095;48.066;8.540;2023-03-01T09:16:14;-2.20;99.90
21861;DHT22;11095;48.066;8.540;2023-03-01T09:18:40;-2.10;99.90
21861;DHT22;11095;48.066;8.540;2023-03-01T09:21:14;-2.00;99.90
21861;DHT22;11095;48.066;8.540;2023-03-01T09:23:43;-1.90;99.90
21861;DHT22;11095;48.066;8.540;2023-03-01T09:26:11;-1.80;99.90
21861;DHT22;11095;48.066;8.540;2023-03-01T09:28:38;-1.80;99.90
21861;DHT22;11095;48.066;8.540;2023-03-01T09:31:04;-1.80;99.90
21861;DHT22;11095;48.066;8.540;2023-03-01T09:33:32;-2.00;99.90
21861;DHT22;11095;48.066;8.540;2023-03-01T09:35:59;-1.90;99.90
21861;DHT22;11095;48.066;8.540;2023-03-01T09:38:25;-1.90;99.90
21861;DHT22;11095;48.066;8.540;2023-03-01T09:40:51;-1.90;99.90
21861;DHT22;11095;48.066;8.540;2023-03-01T09:46:04;-1.80;99.90
21861;DHT22;11095;48.066;8.540;2023-03-01T09:48:40;-1.80;99.90
21861;DHT22;11095;48.066;8.540;2023-03-01T09:51:12;-1.70;99.90
21861;DHT22;11095;48.066;8.540;2023-03-01T09:53:41;-1.70;99.90
21861;DHT22;11095;48.066;8.540;2023-03-01T09:56:28;-1.70;99.90
21861;DHT22;11095;48.066;8.540;2023-03-01T10:02:21;-1.70;99.90
21861;DHT22;11095;48.066;8.540;2023-03-01T10:04:47;-1.60;99.90
21861;DHT22;11095;48.066;8.540;2023-03-01T10:09:57;-1.40;99.90
21861;DHT22;11095;48.066;8.540;2023-03-01T10:12:29;-1.40;99.90
21861;DHT22;11095;48.066;8.540;2023-03-01T10:15:17;-1.20;99.90
21861;DHT22;11095;48.066;8.540;2023-03-01T10:17:53;-1.00;99.90
21861;DHT22;11095;48.066;8.540;2023-03-01T10:20:22;-1.00;99.90
21861;DHT22;11095;48.066;8.540;2023-03-01T10:22:49;-1.10;99.90
21861;DHT22;11095;48.066;8.540;2023-03-01T10:28:31;-1.20;99.90
21861;DHT22;11095;48.066;8.540;2023-03-01T10:31:00;-1.20;99.90
21861;DHT22;11095;48.066;8.540;2023-03-01T10:33:35;-1.30;99.90
21861;DHT22;11095;48.066;8.540;2023-03-01T10:36:02;-1.20;99.90
21861;DHT22;11095;48.066;8.540;2023-03-01T10:38:31;-1.10;99.90
21861;DHT22;11095;48.066;8.540;2023-03-01T10:41:05;-1.00;99.90
21861;DHT22;11095;48.066;8.540;2023-03-01T10:46:31;-0.90;99.90
21861;DHT22;11095;48.066;8.540;2023-03-01T10:49:14;-0.90;99.90
21861;DHT22;11095;48.066;8.540;2023-03-01T10:51:42;-0.90;99.90
21861;DHT22;11095;48.066;8.540;2023-03-01T10:56:48;-0.60;99.90
21861;DHT22;11095;48.066;8.540;2023-03-01T11:04:27;-0.50;99.90
21861;DHT22;11095;48.066;8.540;2023-03-01T11:07:02;-0.50;99.90
21861;DHT22;11095;48.066;8.540;2023-03-01T11:09:32;-0.20;99.90
21861;DHT22;11095;48.066;8.540;2023-03-01T11:12:04;-0.20;99.90
21861;DHT22;11095;48.066;8.540;2023-03-01T11:14:37;-0.10;99.90
21861;DHT22;11095;48.066;8.540;2023-03-01T11:17:24;0.00;99.90
21861;DHT22;11095;48.066;8.540;2023-03-01T11:22:54;0.10;99.90
21861;DHT22;11095;48.066;8.540;2023-03-01T11:25:33;0.00;99.90
21861;DHT22;11095;48.066;8.540;2023-03-01T11:28:02;0.00;99.90
21861;DHT22;11095;48.066;8.540;2023-03-01T11:30:38;0.20;99.90
21861;DHT22;11095;48.066;8.540;2023-03-01T11:33:08;0.30;99.90
21861;DHT22;11095;48.066;8.540;2023-03-01T11:35:42;0.40;99.90
21861;DHT22;11095;48.066;8.540;2023-03-01T11:38:22;0.60;99.90
21861;DHT22;11095;48.066;8.540;2023-03-01T11:43:37;0.70;99.90
21861;DHT22;11095;48.066;8.540;2023-03-01T11:48:52;0.70;99.90
21861;DHT22;11095;48.066;8.540;2023-03-01T11:54:24;0.60;99.90
21861;DHT22;11095;48.066;8.540;2023-03-01T12:04:01;1.20;99.90
21861;DHT22;11095;48.066;8.540;2023-03-01T12:14:21;1.70;99.90
21861;DHT22;11095;48.066;8.540;2023-03-01T12:17:20;1.60;99.90
21861;DHT22;11095;48.066;8.540;2023-03-01T12:20:12;1.70;99.90
21861;DHT22;11095;48.066;8.540;2023-03-01T12:25:45;2.00;99.90
21861;DHT22;11095;48.066;8.540;2023-03-01T12:28:39;2.20;99.90
21861;DHT22;11095;48.066;8.540;2023-03-01T12:36:43;2.10;99.90
21861;DHT22;11095;48.066;8.540;2023-03-01T12:39:32;2.30;99.90
21861;DHT22;11095;48.066;8.540;2023-03-01T12:42:30;2.30;99.90
21861;DHT22;11095;48.066;8.540;2023-03-01T12:50:21;2.50;99.90
21861;DHT22;11095;48.066;8.540;2023-03-01T12:52:58;2.60;99.90
21861;DHT22;11095;48.066;8.540;2023-03-01T12:55:29;2.80;99.90
21861;DHT22;11095;48.066;8.540;2023-03-01T12:58:28;2.80;99.90
21861;DHT22;11095;48.066;8.540;2023-03-01T13:01:22;2.80;99.90
21861;DHT22;11095;48.066;8.540;2023-03-01T13:06:35;2.60;99.90
21861;DHT22;11095;48.066;8.540;2023-03-01T13:09:22;2.80;99.90
21861;DHT22;11095;48.066;8.540;2023-03-01T13:11:51;2.80;99.90
21861;DHT22;11095;48.066;8.540;2023-03-01T13:16:52;2.90;99.90
21861;DHT22;11095;48.066;8.540;2023-03-01T13:19:23;2.80;99.90
21861;DHT22;11095;48.066;8.540;2023-03-01T13:21:51;3.10;99.90
21861;DHT22;11095;48.066;8.540;2023-03-01T13:24:38;2.90;99.90
21861;DHT22;11095;48.066;8.540;2023-03-01T13:29:47;3.00;99.90
21861;DHT22;11095;48.066;8.540;2023-03-01T13:32:36;3.00;99.90
21861;DHT22;11095;48.066;8.540;2023-03-01T13:37:45;3.10;99.90
21861;DHT22;11095;48.066;8.540;2023-03-01T13:42:53;3.20;99.90
21861;DHT22;11095;48.066;8.540;2023-03-01T13:45:22;3.40;99.90
21861;DHT22;11095;48.066;8.540;2023-03-01T13:47:55;3.40;99.90
21861;DHT22;11095;48.066;8.540;2023-03-01T13:50:27;3.50;99.90
21861;DHT22;11095;48.066;8.540;2023-03-01T13:53:02;3.50;99.90
21861;DHT22;11095;48.066;8.540;2023-03-01T14:01:02;3.70;99.90
21861;DHT22;11095;48.066;8.540;2023-03-01T14:03:31;3.70;99.90
21861;DHT22;11095;48.066;8.540;2023-03-01T14:06:09;3.80;99.90
21861;DHT22;11095;48.066;8.540;2023-03-01T14:08:37;3.60;99.90
21861;DHT22;11095;48.066;8.540;2023-03-01T14:14:21;3.50;99.90
21861;DHT22;11095;48.066;8.540;2023-03-01T14:19:26;3.60;99.90
21861;DHT22;11095;48.066;8.540;2023-03-01T14:22:24;3.60;99.90
21861;DHT22;11095;48.066;8.540;2023-03-01T14:24:58;3.60;99.90
21861;DHT22;11095;48.066;8.540;2023-03-01T14:27:39;3.60;99.90
21861;DHT22;11095;48.066;8.540;2023-03-01T14:30:36;3.70;99.90
21861;DHT22;11095;48.066;8.540;2023-03-01T14:33:06;3.70;99.90
21861;DHT22;11095;48.066;8.540;2023-03-01T14:35:35;4.00;99.90
21861;DHT22;11095;48.066;8.540;2023-03-01T14:38:02;4.10;99.90
21861;DHT22;11095;48.066;8.540;2023-03-01T14:42:58;4.10;99.90
21861;DHT22;11095;48.066;8.540;2023-03-01T14:45:27;4.00;99.90
21861;DHT22;11095;48.066;8.540;2023-03-01T14:47:54;4.10;99.90
21861;DHT22;11095;48.066;8.540;2023-03-01T14:50:29;4.30;99.90
21861;DHT22;11095;48.066;8.540;2023-03-01T14:53:01;4.50;99.90
21861;DHT22;11095;48.066;8.540;2023-03-01T14:55:38;4.60;99.90
21861;DHT22;11095;48.066;8.540;2023-03-01T14:58:12;4.70;99.90
21861;DHT22;11095;48.066;8.540;2023-03-01T15:00:39;4.70;99.90
21861;DHT22;11095;48.066;8.540;2023-03-01T15:03:36;4.50;99.90
21861;DHT22;11095;48.066;8.540;2023-03-01T15:06:05;4.50;99.90
21861;DHT22;11095;48.066;8.540;2023-03-01T15:08:31;4.50;99.90
21861;DHT22;11095;48.066;8.540;2023-03-01T15:13:32;4.40;99.90
21861;DHT22;11095;48.066;8.540;2023-03-01T15:18:31;4.40;99.90
21861;DHT22;11095;48.066;8.540;2023-03-01T15:21:19;4.40;99.90
21861;DHT22;11095;48.066;8.540;2023-03-01T15:23:54;4.40;99.90
21861;DHT22;11095;48.066;8.540;2023-03-01T15:26:38;4.50;99.90
21861;DHT22;11095;48.066;8.540;2023-03-01T15:29:04;4.60;99.90
21861;DHT22;11095;48.066;8.540;2023-03-01T15:31:42;4.60;99.90
21861;DHT22;11095;48.066;8.540;2023-03-01T15:34:26;4.60;99.90
21861;DHT22;11095;48.066;8.540;2023-03-01T15:36:53;4.60;99.90
21861;DHT22;11095;48.066;8.540;2023-03-01T15:40:28;4.60;99.90
21861;DHT22;11095;48.066;8.540;2023-03-01T15:42:37;4.60;99.90
21861;DHT22;11095;48.066;8.540;2023-03-01T15:47:47;4.60;99.90
21861;DHT22;11095;48.066;8.540;2023-03-01T15:50:37;4.70;99.90
21861;DHT22;11095;48.066;8.540;2023-03-01T15:53:15;4.60;99.90
21861;DHT22;11095;48.066;8.540;2023-03-01T15:55:40;4.60;99.90
21861;DHT22;11095;48.066;8.540;2023-03-01T15:58:13;4.60;99.90
21861;DHT22;11095;48.066;8.540;2023-03-01T16:00:40;4.60;99.90
21861;DHT22;11095;48.066;8.540;2023-03-01T16:03:06;4.60;99.90
21861;DHT22;11095;48.066;8.540;2023-03-01T16:05:35;4.70;99.90
21861;DHT22;11095;48.066;8.540;2023-03-01T16:08:02;4.70;99.90
21861;DHT22;11095;48.066;8.540;2023-03-01T16:10:28;4.70;99.90
21861;DHT22;11095;48.066;8.540;2023-03-01T16:12:55;4.60;99.90
21861;DHT22;11095;48.066;8.540;2023-03-01T16:15:26;4.50;99.90
21861;DHT22;11095;48.066;8.540;2023-03-01T16:17:53;4.40;99.90
21861;DHT22;11095;48.066;8.540;2023-03-01T16:20:19;4.10;99.90
21861;DHT22;11095;48.066;8.540;2023-03-01T16:22:45;4.00;99.90
21861;DHT22;11095;48.066;8.540;2023-03-01T16:25:16;3.90;99.90
21861;DHT22;11095;48.066;8.540;2023-03-01T16:27:43;3.80;99.90
21861;DHT22;11095;48.066;8.540;2023-03-01T16:30:09;3.80;99.90
21861;DHT22;11095;48.066;8.540;2023-03-01T16:32:43;3.60;99.90
21861;DHT22;11095;48.066;8.540;2023-03-01T16:35:12;3.60;99.90
21861;DHT22;11095;48.066;8.540;2023-03-01T16:37:38;3.50;99.90
21861;DHT22;11095;48.066;8.540;2023-03-01T16:40:05;3.40;99.90
21861;DHT22;11095;48.066;8.540;2023-03-01T16:42:35;3.40;99.90
21861;DHT22;11095;48.066;8.540;2023-03-01T16:45:01;3.30;99.90
21861;DHT22;11095;48.066;8.540;2023-03-01T16:47:28;3.20;99.90
21861;DHT22;11095;48.066;8.540;2023-03-01T16:49:54;3.20;99.90
21861;DHT22;11095;48.066;8.540;2023-03-01T16:52:21;3.20;99.90
21861;DHT22;11095;48.066;8.540;2023-03-01T16:54:46;3.20;99.90
21861;DHT22;11095;48.066;8.540;2023-03-01T16:57:12;3.10;99.90
21861;DHT22;11095;48.066;8.540;2023-03-01T16:59:38;3.20;99.90
21861;DHT22;11095;48.066;8.540;2023-03-01T17:02:04;3.10;99.90
21861;DHT22;11095;48.066;8.540;2023-03-01T17:04:31;3.10;99.90
21861;DHT22;11095;48.066;8.540;2023-03-01T17:06:57;3.00;99.90
21861;DHT22;11095;48.066;8.540;2023-03-01T17:09:22;2.90;99.90
21861;DHT22;11095;48.066;8.540;2023-03-01T17:11:48;2.80;99.90
21861;DHT22;11095;48.066;8.540;2023-03-01T17:14:15;2.70;99.90
21861;DHT22;11095;48.066;8.540;2023-03-01T17:16:43;2.70;99.90
21861;DHT22;11095;48.066;8.540;2023-03-01T17:19:10;2.60;99.90
21861;DHT22;11095;48.066;8.540;2023-03-01T17:21:36;2.50;99.90
21861;DHT22;11095;48.066;8.540;2023-03-01T17:24:02;2.40;99.90
21861;DHT22;11095;48.066;8.540;2023-03-01T17:26:28;2.30;99.90
21861;DHT22;11095;48.066;8.540;2023-03-01T17:28:55;2.20;99.90
21861;DHT22;11095;48.066;8.540;2023-03-01T17:31:22;2.10;99.90
21861;DHT22;11095;48.066;8.540;2023-03-01T17:33:48;2.10;99.90
21861;DHT22;11095;48.066;8.540;2023-03-01T17:36:14;2.00;99.90
21861;DHT22;11095;48.066;8.540;2023-03-01T17:38:40;2.00;99.90
21861;DHT22;11095;48.066;8.540;2023-03-01T17:41:06;1.90;99.90
21861;DHT22;11095;48.066;8.540;2023-03-01T17:43:31;1.80;99.90
21861;DHT22;11095;48.066;8.540;2023-03-01T17:45:59;1.70;99.90
21861;DHT22;11095;48.066;8.540;2023-03-01T17:48:25;1.60;99.90
21861;DHT22;11095;48.066;8.540;2023-03-01T17:50:51;1.50;99.90
21861;DHT22;11095;48.066;8.540;2023-03-01T17:53:17;1.40;99.90
21861;DHT22;11095;48.066;8.540;2023-03-01T17:55:43;1.30;99.90
21861;DHT22;11095;48.066;8.540;2023-03-01T17:58:11;1.20;99.90
21861;DHT22;11095;48.066;8.540;2023-03-01T18:00:38;1.10;99.90
21861;DHT22;11095;48.066;8.540;2023-03-01T18:03:04;1.00;99.90
21861;DHT22;11095;48.066;8.540;2023-03-01T18:05:34;1.10;99.90
21861;DHT22;11095;48.066;8.540;2023-03-01T18:08:00;1.10;99.90
21861;DHT22;11095;48.066;8.540;2023-03-01T18:10:26;1.00;99.90
21861;DHT22;11095;48.066;8.540;2023-03-01T18:12:52;1.10;99.90
21861;DHT22;11095;48.066;8.540;2023-03-01T18:15:17;1.10;99.90
21861;DHT22;11095;48.066;8.540;2023-03-01T18:17:43;1.10;99.90
21861;DHT22;11095;48.066;8.540;2023-03-01T18:20:09;1.20;99.90
21861;DHT22;11095;48.066;8.540;2023-03-01T18:22:35;1.20;99.90
21861;DHT22;11095;48.066;8.540;2023-03-01T18:25:02;1.20;99.90